sensor_id;sensor_type;location;lat;lon;timestamp;P1;durP1;ratioP1;P2;durP2;ratioP2
30874;SDS011;17581;43.222;27.924;2023-05-14T00:00:34;12.90;;;3.75;;
30874;SDS011;17581;43.222;27.924;2023-05-14T00:03:00;10.05;;;4.28;;
30874;SDS011;17581;43.222;27.924;2023-05-14T00:05:25;12.90;;;4.70;;
30874;SDS011;17581;43.222;27.924;2023-05-14T00:07:51;12.52;;;4.53;;
30874;SDS011;17581;43.222;27.924;2023-05-14T00:10:16;7.35;;;4.10;;
30874;SDS011;17581;43.222;27.924;2023-05-14T00:12:44;6.40;;;3.65;;
30874;SDS011;17581;43.222;27.924;2023-05-14T00:15:09;7.05;;;3.72;;
30874;SDS011;17581;43.222;27.924;2023-05-14T00:17:35;14.32;;;3.90;;
30874;SDS011;17581;43.222;27.924;2023-05-14T00:20:01;11.40;;;4.10;;
30874;SDS011;17581;43.222;27.924;2023-05-14T00:22:31;11.45;;;3.65;;
30874;SDS011;17581;43.222;27.924;2023-05-14T00:24:56;13.73;;;4.25;;
30874;SDS011;17581;43.222;27.924;2023-05-14T00:27:22;6.78;;;4.00;;
30874;SDS011;17581;43.222;27.924;2023-05-14T00:29:47;13.52;;;4.30;;
30874;SDS011;17581;43.222;27.924;2023-05-14T00:32:13;13.10;;;3.60;;
30874;SDS011;17581;43.222;27.924;2023-05-14T00:34:38;25.42;;;5.43;;
30874;SDS011;17581;43.222;27.924;2023-05-14T00:37:04;19.05;;;4.35;;
30874;SDS011;17581;43.222;27.924;2023-05-14T00:39:29;11.32;;;3.78;;
30874;SDS011;17581;43.222;27.924;2023-05-14T00:41:55;31.98;;;4.85;;
30874;SDS011;17581;43.222;27.924;2023-05-14T00:44:20;10.45;;;3.60;;
30874;SDS011;17581;43.222;27.924;2023-05-14T00:46:45;18.35;;;4.03;;
30874;SDS011;17581;43.222;27.924;2023-05-14T00:49:11;12.80;;;4.15;;
30874;SDS011;17581;43.222;27.924;2023-05-14T00:51:37;28.20;;;3.50;;
30874;SDS011;17581;43.222;27.924;2023-05-14T00:54:03;9.38;;;3.42;;
30874;SDS011;17581;43.222;27.924;2023-05-14T00:56:30;11.07;;;3.83;;
30874;SDS011;17581;43.222;27.924;2023-05-14T00:58:55;15.52;;;5.40;;
30874;SDS011;17581;43.222;27.924;2023-05-14T01:01:21;9.85;;;5.38;;
30874;SDS011;17581;43.222;27.924;2023-05-14T01:03:46;11.02;;;7.55;;
30874;SDS011;17581;43.222;27.924;2023-05-14T01:14:23;29.92;;;8.25;;
30874;SDS011;17581;43.222;27.924;2023-05-14T01:17:09;26.73;;;7.22;;
30874;SDS011;17581;43.222;27.924;2023-05-14T01:19:39;25.85;;;6.55;;
30874;SDS011;17581;43.222;27.924;2023-05-14T01:22:07;17.30;;;5.40;;
30874;SDS011;17581;43.222;27.924;2023-05-14T01:24:32;22.10;;;7.22;;
30874;SDS011;17581;43.222;27.924;2023-05-14T01:27:16;19.88;;;5.65;;
30874;SDS011;17581;43.222;27.924;2023-05-14T01:32:32;21.98;;;7.30;;
30874;SDS011;17581;43.222;27.924;2023-05-14T01:34:57;12.77;;;4.70;;
30874;SDS011;17581;43.222;27.924;2023-05-14T01:37:25;5.63;;;4.05;;
30874;SDS011;17581;43.222;27.924;2023-05-14T01:39:53;14.77;;;4.75;;
30874;SDS011;17581;43.222;27.924;2023-05-14T01:42:20;14.10;;;5.72;;
30874;SDS011;17581;43.222;27.924;2023-05-14T01:44:46;10.25;;;5.40;;
30874;SDS011;17581;43.222;27.924;2023-05-14T01:47:11;14.65;;;6.50;;
30874;SDS011;17581;43.222;27.924;2023-05-14T01:49:37;18.15;;;6.60;;
30874;SDS011;17581;43.222;27.924;2023-05-14T01:52:02;16.58;;;5.05;;
30874;SDS011;17581;43.222;27.924;2023-05-14T01:54:28;15.25;;;4.72;;
30874;SDS011;17581;43.222;27.924;2023-05-14T01:56:53;23.60;;;5.15;;
30874;SDS011;17581;43.222;27.924;2023-05-14T01:59:18;15.05;;;4.78;;
30874;SDS011;17581;43.222;27.924;2023-05-14T02:01:44;16.23;;;6.65;;
30874;SDS011;17581;43.222;27.924;2023-05-14T02:04:09;16.35;;;4.80;;
30874;SDS011;17581;43.222;27.924;2023-05-14T02:06:35;10.05;;;4.47;;
30874;SDS011;17581;43.222;27.924;2023-05-14T02:09:00;13.35;;;5.10;;
30874;SDS011;17581;43.222;27.924;2023-05-14T02:11:26;12.80;;;5.57;;
30874;SDS011;17581;43.222;27.924;2023-05-14T02:13:52;17.63;;;5.90;;
30874;SDS011;17581;43.222;27.924;2023-05-14T02:16:17;22.75;;;6.57;;
30874;SDS011;17581;43.222;27.924;2023-05-14T02:18:43;10.45;;;5.53;;
30874;SDS011;17581;43.222;27.924;2023-05-14T02:21:08;12.88;;;5.47;;
30874;SDS011;17581;43.222;27.924;2023-05-14T02:23:34;20.52;;;6.03;;
30874;SDS011;17581;43.222;27.924;2023-05-14T02:25:59;18.60;;;5.88;;
30874;SDS011;17581;43.222;27.924;2023-05-14T02:28:25;22.50;;;6.35;;
30874;SDS011;17581;43.222;27.924;2023-05-14T02:30:50;19.60;;;7.05;;
30874;SDS011;17581;43.222;27.924;2023-05-14T02:33:16;15.05;;;7.38;;
30874;SDS011;17581;43.222;27.924;2023-05-14T02:35:41;16.10;;;6.80;;
30874;SDS011;17581;43.222;27.924;2023-05-14T02:38:06;49.40;;;9.93;;
30874;SDS011;17581;43.222;27.924;2023-05-14T02:40:32;12.38;;;6.78;;
30874;SDS011;17581;43.222;27.924;2023-05-14T02:42:57;16.73;;;7.72;;
30874;SDS011;17581;43.222;27.924;2023-05-14T02:45:23;21.67;;;7.78;;
30874;SDS011;17581;43.222;27.924;2023-05-14T02:47:48;20.80;;;6.05;;
30874;SDS011;17581;43.222;27.924;2023-05-14T02:50:13;13.15;;;6.65;;
30874;SDS011;17581;43.222;27.924;2023-05-14T02:52:39;22.88;;;6.13;;
30874;SDS011;17581;43.222;27.924;2023-05-14T02:55:05;16.45;;;6.93;;
30874;SDS011;17581;43.222;27.924;2023-05-14T02:57:30;30.13;;;6.93;;
30874;SDS011;17581;43.222;27.924;2023-05-14T02:59:56;25.40;;;6.95;;
30874;SDS011;17581;43.222;27.924;2023-05-14T03:02:21;26.42;;;6.47;;
30874;SDS011;17581;43.222;27.924;2023-05-14T03:04:47;15.27;;;5.03;;
30874;SDS011;17581;43.222;27.924;2023-05-14T03:07:12;21.65;;;5.55;;
30874;SDS011;17581;43.222;27.924;2023-05-14T03:09:38;15.90;;;5.65;;
30874;SDS011;17581;43.222;27.924;2023-05-14T03:12:03;22.83;;;4.57;;
30874;SDS011;17581;43.222;27.924;2023-05-14T03:14:29;8.45;;;4.38;;
30874;SDS011;17581;43.222;27.924;2023-05-14T03:16:54;8.43;;;4.32;;
30874;SDS011;17581;43.222;27.924;2023-05-14T03:19:20;24.48;;;7.88;;
30874;SDS011;17581;43.222;27.924;2023-05-14T03:21:45;14.65;;;4.55;;
30874;SDS011;17581;43.222;27.924;2023-05-14T03:24:11;11.43;;;3.83;;
30874;SDS011;17581;43.222;27.924;2023-05-14T03:26:36;34.63;;;5.97;;
30874;SDS011;17581;43.222;27.924;2023-05-14T03:29:01;18.50;;;6.90;;
30874;SDS011;17581;43.222;27.924;2023-05-14T03:31:27;19.67;;;11.35;;
30874;SDS011;17581;43.222;27.924;2023-05-14T03:33:53;36.00;;;15.25;;
30874;SDS011;17581;43.222;27.924;2023-05-14T03:36:19;42.22;;;18.92;;
30874;SDS011;17581;43.222;27.924;2023-05-14T03:38:44;40.83;;;19.17;;
30874;SDS011;17581;43.222;27.924;2023-05-14T03:41:10;46.83;;;21.20;;
30874;SDS011;17581;43.222;27.924;2023-05-14T03:43:35;37.60;;;20.05;;
30874;SDS011;17581;43.222;27.924;2023-05-14T03:46:01;34.95;;;16.63;;
30874;SDS011;17581;43.222;27.924;2023-05-14T03:48:26;39.63;;;13.90;;
30874;SDS011;17581;43.222;27.924;2023-05-14T03:50:51;32.10;;;14.57;;
30874;SDS011;17581;43.222;27.924;2023-05-14T03:53:17;29.83;;;12.98;;
30874;SDS011;17581;43.222;27.924;2023-05-14T03:55:42;32.85;;;12.05;;
30874;SDS011;17581;43.222;27.924;2023-05-14T03:58:08;29.50;;;12.10;;
30874;SDS011;17581;43.222;27.924;2023-05-14T04:00:41;24.58;;;10.02;;
30874;SDS011;17581;43.222;27.924;2023-05-14T04:03:07;19.75;;;8.73;;
30874;SDS011;17581;43.222;27.924;2023-05-14T04:05:33;20.95;;;9.63;;
30874;SDS011;17581;43.222;27.924;2023-05-14T04:07:59;21.05;;;7.38;;
30874;SDS011;17581;43.222;27.924;2023-05-14T04:10:25;18.35;;;5.93;;
30874;SDS011;17581;43.222;27.924;2023-05-14T04:12:51;30.35;;;11.07;;
30874;SDS011;17581;43.222;27.924;2023-05-14T04:15:16;42.17;;;10.00;;
30874;SDS011;17581;43.222;27.924;2023-05-14T04:17:42;36.45;;;11.80;;
30874;SDS011;17581;43.222;27.924;2023-05-14T04:20:07;28.65;;;12.05;;
30874;SDS011;17581;43.222;27.924;2023-05-14T04:22:33;30.45;;;9.82;;
30874;SDS011;17581;43.222;27.924;2023-05-14T04:24:59;37.33;;;10.27;;
30874;SDS011;17581;43.222;27.924;2023-05-14T04:27:24;40.40;;;11.20;;
30874;SDS011;17581;43.222;27.924;2023-05-14T04:29:50;26.38;;;10.32;;
30874;SDS011;17581;43.222;27.924;2023-05-14T04:32:15;20.63;;;9.30;;
30874;SDS011;17581;43.222;27.924;2023-05-14T04:34:41;29.17;;;10.05;;
30874;SDS011;17581;43.222;27.924;2023-05-14T04:37:07;29.83;;;10.45;;
30874;SDS011;17581;43.222;27.924;2023-05-14T04:39:34;25.30;;;10.32;;
30874;SDS011;17581;43.222;27.924;2023-05-14T04:41:59;24.45;;;11.15;;
30874;SDS011;17581;43.222;27.924;2023-05-14T04:44:24;31.90;;;12.52;;
30874;SDS011;17581;43.222;27.924;2023-05-14T04:46:50;21.58;;;12.48;;
30874;SDS011;17581;43.222;27.924;2023-05-14T04:49:15;34.17;;;14.43;;
30874;SDS011;17581;43.222;27.924;2023-05-14T04:51:41;30.52;;;15.95;;
30874;SDS011;17581;43.222;27.924;2023-05-14T04:54:07;39.75;;;18.20;;
30874;SDS011;17581;43.222;27.924;2023-05-14T04:56:32;31.67;;;17.98;;
30874;SDS011;17581;43.222;27.924;2023-05-14T04:58:57;34.85;;;16.92;;
30874;SDS011;17581;43.222;27.924;2023-05-14T05:01:23;26.42;;;16.95;;
30874;SDS011;17581;43.222;27.924;2023-05-14T05:03:48;34.53;;;15.95;;
30874;SDS011;17581;43.222;27.924;2023-05-14T05:06:14;33.70;;;17.58;;
30874;SDS011;17581;43.222;27.924;2023-05-14T05:08:40;47.80;;;17.98;;
30874;SDS011;17581;43.222;27.924;2023-05-14T05:11:05;49.20;;;16.63;;
30874;SDS011;17581;43.222;27.924;2023-05-14T05:13:31;34.63;;;17.58;;
30874;SDS011;17581;43.222;27.924;2023-05-14T05:15:56;32.38;;;15.98;;
30874;SDS011;17581;43.222;27.924;2023-05-14T05:18:22;25.60;;;12.77;;
30874;SDS011;17581;43.222;27.924;2023-05-14T05:20:47;18.63;;;11.60;;
30874;SDS011;17581;43.222;27.924;2023-05-14T05:23:13;19.23;;;10.65;;
30874;SDS011;17581;43.222;27.924;2023-05-14T05:25:38;16.40;;;10.60;;
30874;SDS011;17581;43.222;27.924;2023-05-14T05:28:04;24.77;;;12.20;;
30874;SDS011;17581;43.222;27.924;2023-05-14T05:30:29;16.48;;;10.73;;
30874;SDS011;17581;43.222;27.924;2023-05-14T05:32:55;24.67;;;12.00;;
30874;SDS011;17581;43.222;27.924;2023-05-14T05:35:21;18.85;;;12.35;;
30874;SDS011;17581;43.222;27.924;2023-05-14T05:37:47;24.63;;;11.52;;
30874;SDS011;17581;43.222;27.924;2023-05-14T05:40:12;23.23;;;12.88;;
30874;SDS011;17581;43.222;27.924;2023-05-14T05:42:38;20.90;;;10.18;;
30874;SDS011;17581;43.222;27.924;2023-05-14T05:45:05;19.77;;;8.20;;
30874;SDS011;17581;43.222;27.924;2023-05-14T05:47:31;29.48;;;8.65;;
30874;SDS011;17581;43.222;27.924;2023-05-14T05:49:56;16.15;;;7.78;;
30874;SDS011;17581;43.222;27.924;2023-05-14T05:52:22;19.15;;;7.60;;
30874;SDS011;17581;43.222;27.924;2023-05-14T05:54:47;12.50;;;7.20;;
30874;SDS011;17581;43.222;27.924;2023-05-14T05:57:12;43.45;;;8.20;;
30874;SDS011;17581;43.222;27.924;2023-05-14T05:59:38;17.27;;;8.35;;
30874;SDS011;17581;43.222;27.924;2023-05-14T06:02:03;20.65;;;8.45;;
30874;SDS011;17581;43.222;27.924;2023-05-14T06:04:29;25.85;;;8.82;;
30874;SDS011;17581;43.222;27.924;2023-05-14T06:06:54;25.10;;;7.82;;
30874;SDS011;17581;43.222;27.924;2023-05-14T06:09:20;20.25;;;7.05;;
30874;SDS011;17581;43.222;27.924;2023-05-14T06:11:45;19.05;;;6.85;;
30874;SDS011;17581;43.222;27.924;2023-05-14T06:14:11;16.17;;;6.82;;
30874;SDS011;17581;43.222;27.924;2023-05-14T06:16:36;14.93;;;7.72;;
30874;SDS011;17581;43.222;27.924;2023-05-14T06:19:02;24.33;;;8.35;;
30874;SDS011;17581;43.222;27.924;2023-05-14T06:21:27;20.85;;;6.35;;
30874;SDS011;17581;43.222;27.924;2023-05-14T06:23:53;21.73;;;5.45;;
30874;SDS011;17581;43.222;27.924;2023-05-14T06:26:18;26.40;;;5.47;;
30874;SDS011;17581;43.222;27.924;2023-05-14T06:28:44;11.40;;;5.13;;
30874;SDS011;17581;43.222;27.924;2023-05-14T06:31:09;11.02;;;4.32;;
30874;SDS011;17581;43.222;27.924;2023-05-14T06:33:35;6.65;;;3.75;;
30874;SDS011;17581;43.222;27.924;2023-05-14T06:36:02;12.40;;;4.30;;
30874;SDS011;17581;43.222;27.924;2023-05-14T06:38:30;14.45;;;5.10;;
30874;SDS011;17581;43.222;27.924;2023-05-14T06:40:55;13.60;;;4.32;;
30874;SDS011;17581;43.222;27.924;2023-05-14T06:43:21;13.63;;;5.20;;
30874;SDS011;17581;43.222;27.924;2023-05-14T06:45:50;8.60;;;4.00;;
30874;SDS011;17581;43.222;27.924;2023-05-14T06:48:16;12.73;;;4.30;;
30874;SDS011;17581;43.222;27.924;2023-05-14T06:50:48;18.33;;;5.40;;
30874;SDS011;17581;43.222;27.924;2023-05-14T06:53:13;10.73;;;3.67;;
30874;SDS011;17581;43.222;27.924;2023-05-14T06:55:39;18.13;;;5.50;;
30874;SDS011;17581;43.222;27.924;2023-05-14T06:58:05;7.22;;;4.43;;
30874;SDS011;17581;43.222;27.924;2023-05-14T07:00:31;12.32;;;4.18;;
30874;SDS011;17581;43.222;27.924;2023-05-14T07:02:57;11.30;;;3.75;;
30874;SDS011;17581;43.222;27.924;2023-05-14T07:05:23;14.23;;;4.03;;
30874;SDS011;17581;43.222;27.924;2023-05-14T07:07:49;17.70;;;4.22;;
30874;SDS011;17581;43.222;27.924;2023-05-14T07:10:14;10.80;;;3.33;;
30874;SDS011;17581;43.222;27.924;2023-05-14T07:12:40;23.58;;;4.40;;
30874;SDS011;17581;43.222;27.924;2023-05-14T07:15:06;10.93;;;2.78;;
30874;SDS011;17581;43.222;27.924;2023-05-14T07:17:32;19.95;;;3.60;;
30874;SDS011;17581;43.222;27.924;2023-05-14T07:19:57;12.25;;;3.15;;
30874;SDS011;17581;43.222;27.924;2023-05-14T07:22:23;11.75;;;3.38;;
30874;SDS011;17581;43.222;27.924;2023-05-14T07:24:48;11.65;;;2.65;;
30874;SDS011;17581;43.222;27.924;2023-05-14T07:27:14;24.63;;;3.90;;
30874;SDS011;17581;43.222;27.924;2023-05-14T07:29:41;22.33;;;3.72;;
30874;SDS011;17581;43.222;27.924;2023-05-14T07:32:06;16.00;;;3.25;;
30874;SDS011;17581;43.222;27.924;2023-05-14T07:34:32;6.88;;;3.17;;
30874;SDS011;17581;43.222;27.924;2023-05-14T07:36:57;6.80;;;2.88;;
30874;SDS011;17581;43.222;27.924;2023-05-14T07:39:23;15.73;;;3.42;;
30874;SDS011;17581;43.222;27.924;2023-05-14T07:41:49;13.90;;;3.15;;
30874;SDS011;17581;43.222;27.924;2023-05-14T07:44:15;9.38;;;3.42;;
30874;SDS011;17581;43.222;27.924;2023-05-14T07:46:41;16.67;;;3.53;;
30874;SDS011;17581;43.222;27.924;2023-05-14T07:49:06;18.58;;;3.35;;
30874;SDS011;17581;43.222;27.924;2023-05-14T07:51:32;7.43;;;3.05;;
30874;SDS011;17581;43.222;27.924;2023-05-14T07:53:58;49.75;;;6.85;;
30874;SDS011;17581;43.222;27.924;2023-05-14T07:56:23;22.23;;;4.10;;
30874;SDS011;17581;43.222;27.924;2023-05-14T07:58:49;10.05;;;2.85;;
30874;SDS011;17581;43.222;27.924;2023-05-14T08:01:15;38.63;;;5.07;;
30874;SDS011;17581;43.222;27.924;2023-05-14T08:03:41;7.60;;;2.72;;
30874;SDS011;17581;43.222;27.924;2023-05-14T08:06:06;7.13;;;2.70;;
30874;SDS011;17581;43.222;27.924;2023-05-14T08:08:32;21.33;;;3.60;;
30874;SDS011;17581;43.222;27.924;2023-05-14T08:10:58;19.00;;;2.72;;
30874;SDS011;17581;43.222;27.924;2023-05-14T08:13:24;15.88;;;3.30;;
30874;SDS011;17581;43.222;27.924;2023-05-14T08:15:50;18.40;;;2.50;;
30874;SDS011;17581;43.222;27.924;2023-05-14T08:18:16;8.98;;;3.17;;
30874;SDS011;17581;43.222;27.924;2023-05-14T08:20:41;9.68;;;3.20;;
30874;SDS011;17581;43.222;27.924;2023-05-14T08:23:06;13.00;;;2.88;;
30874;SDS011;17581;43.222;27.924;2023-05-14T08:25:33;8.07;;;1.95;;
30874;SDS011;17581;43.222;27.924;2023-05-14T08:27:59;7.40;;;2.80;;
30874;SDS011;17581;43.222;27.924;2023-05-14T08:30:24;38.53;;;5.35;;
30874;SDS011;17581;43.222;27.924;2023-05-14T08:32:50;18.35;;;4.22;;
30874;SDS011;17581;43.222;27.924;2023-05-14T08:35:16;11.95;;;2.38;;
30874;SDS011;17581;43.222;27.924;2023-05-14T08:37:42;6.05;;;2.47;;
30874;SDS011;17581;43.222;27.924;2023-05-14T08:40:08;8.80;;;3.63;;
30874;SDS011;17581;43.222;27.924;2023-05-14T08:42:33;11.15;;;3.50;;
30874;SDS011;17581;43.222;27.924;2023-05-14T08:45:01;6.28;;;2.83;;
30874;SDS011;17581;43.222;27.924;2023-05-14T08:47:30;21.38;;;3.70;;
30874;SDS011;17581;43.222;27.924;2023-05-14T08:50:05;6.22;;;2.58;;
30874;SDS011;17581;43.222;27.924;2023-05-14T08:52:32;10.60;;;2.78;;
30874;SDS011;17581;43.222;27.924;2023-05-14T08:54:59;9.75;;;3.53;;
30874;SDS011;17581;43.222;27.924;2023-05-14T08:57:27;30.67;;;4.47;;
30874;SDS011;17581;43.222;27.924;2023-05-14T08:59:55;3.53;;;2.17;;
30874;SDS011;17581;43.222;27.924;2023-05-14T09:02:26;7.18;;;2.38;;
30874;SDS011;17581;43.222;27.924;2023-05-14T09:04:54;17.50;;;2.65;;
30874;SDS011;17581;43.222;27.924;2023-05-14T09:07:21;13.30;;;2.53;;
30874;SDS011;17581;43.222;27.924;2023-05-14T09:09:47;8.65;;;2.47;;
30874;SDS011;17581;43.222;27.924;2023-05-14T09:12:13;19.63;;;3.67;;
30874;SDS011;17581;43.222;27.924;2023-05-14T09:14:38;7.32;;;2.70;;
30874;SDS011;17581;43.222;27.924;2023-05-14T09:17:04;9.00;;;3.40;;
30874;SDS011;17581;43.222;27.924;2023-05-14T09:19:30;7.57;;;2.50;;
30874;SDS011;17581;43.222;27.924;2023-05-14T09:21:58;16.70;;;3.13;;
30874;SDS011;17581;43.222;27.924;2023-05-14T09:24:24;9.50;;;2.53;;
30874;SDS011;17581;43.222;27.924;2023-05-14T09:26:54;5.45;;;2.40;;
30874;SDS011;17581;43.222;27.924;2023-05-14T09:29:22;14.02;;;3.10;;
30874;SDS011;17581;43.222;27.924;2023-05-14T09:31:49;7.90;;;2.95;;
30874;SDS011;17581;43.222;27.924;2023-05-14T09:34:33;7.55;;;3.17;;
30874;SDS011;17581;43.222;27.924;2023-05-14T09:37:05;7.97;;;2.65;;
30874;SDS011;17581;43.222;27.924;2023-05-14T09:39:33;14.25;;;3.67;;
30874;SDS011;17581;43.222;27.924;2023-05-14T09:42:00;24.67;;;3.83;;
30874;SDS011;17581;43.222;27.924;2023-05-14T09:44:26;22.05;;;4.53;;
30874;SDS011;17581;43.222;27.924;2023-05-14T09:46:52;9.73;;;2.97;;
30874;SDS011;17581;43.222;27.924;2023-05-14T09:49:17;15.07;;;3.60;;
30874;SDS011;17581;43.222;27.924;2023-05-14T09:51:43;11.48;;;3.70;;
30874;SDS011;17581;43.222;27.924;2023-05-14T09:54:09;20.83;;;4.10;;
30874;SDS011;17581;43.222;27.924;2023-05-14T09:56:35;5.80;;;3.22;;
30874;SDS011;17581;43.222;27.924;2023-05-14T09:59:02;9.20;;;4.18;;
30874;SDS011;17581;43.222;27.924;2023-05-14T10:01:28;10.80;;;2.72;;
30874;SDS011;17581;43.222;27.924;2023-05-14T10:03:55;7.28;;;2.63;;
30874;SDS011;17581;43.222;27.924;2023-05-14T10:06:22;6.70;;;3.38;;
30874;SDS011;17581;43.222;27.924;2023-05-14T10:08:51;11.68;;;3.35;;
30874;SDS011;17581;43.222;27.924;2023-05-14T10:11:21;7.07;;;3.15;;
30874;SDS011;17581;43.222;27.924;2023-05-14T10:14:10;10.80;;;3.30;;
30874;SDS011;17581;43.222;27.924;2023-05-14T10:16:43;19.48;;;4.43;;
30874;SDS011;17581;43.222;27.924;2023-05-14T10:19:15;11.35;;;3.72;;
30874;SDS011;17581;43.222;27.924;2023-05-14T10:21:51;9.23;;;2.92;;
30874;SDS011;17581;43.222;27.924;2023-05-14T10:24:20;8.30;;;3.30;;
30874;SDS011;17581;43.222;27.924;2023-05-14T10:26:46;7.05;;;3.25;;
30874;SDS011;17581;43.222;27.924;2023-05-14T10:29:12;15.30;;;4.85;;
30874;SDS011;17581;43.222;27.924;2023-05-14T10:31:44;13.57;;;4.18;;
30874;SDS011;17581;43.222;27.924;2023-05-14T10:36:59;13.15;;;4.10;;
30874;SDS011;17581;43.222;27.924;2023-05-14T10:39:41;13.40;;;4.15;;
30874;SDS011;17581;43.222;27.924;2023-05-14T10:42:10;12.13;;;3.60;;
30874;SDS011;17581;43.222;27.924;2023-05-14T10:44:39;35.15;;;20.85;;
30874;SDS011;17581;43.222;27.924;2023-05-14T10:47:09;23.48;;;6.03;;
30874;SDS011;17581;43.222;27.924;2023-05-14T10:49:35;24.20;;;4.88;;
30874;SDS011;17581;43.222;27.924;2023-05-14T10:52:00;16.13;;;4.13;;
30874;SDS011;17581;43.222;27.924;2023-05-14T10:54:26;7.70;;;3.08;;
30874;SDS011;17581;43.222;27.924;2023-05-14T10:56:52;11.40;;;2.72;;
30874;SDS011;17581;43.222;27.924;2023-05-14T10:59:18;13.38;;;3.40;;
30874;SDS011;17581;43.222;27.924;2023-05-14T11:01:44;11.90;;;3.53;;
30874;SDS011;17581;43.222;27.924;2023-05-14T11:04:16;13.75;;;3.78;;
30874;SDS011;17581;43.222;27.924;2023-05-14T11:06:43;6.80;;;3.70;;
30874;SDS011;17581;43.222;27.924;2023-05-14T11:09:12;13.15;;;4.00;;
30874;SDS011;17581;43.222;27.924;2023-05-14T11:11:41;11.60;;;3.80;;
30874;SDS011;17581;43.222;27.924;2023-05-14T11:14:06;13.70;;;4.13;;
30874;SDS011;17581;43.222;27.924;2023-05-14T11:16:33;25.75;;;4.45;;
30874;SDS011;17581;43.222;27.924;2023-05-14T11:19:02;12.30;;;4.15;;
30874;SDS011;17581;43.222;27.924;2023-05-14T11:21:29;7.60;;;3.10;;
30874;SDS011;17581;43.222;27.924;2023-05-14T11:23:56;14.35;;;2.95;;
30874;SDS011;17581;43.222;27.924;2023-05-14T11:26:24;9.50;;;2.30;;
30874;SDS011;17581;43.222;27.924;2023-05-14T11:28:49;16.67;;;2.70;;
30874;SDS011;17581;43.222;27.924;2023-05-14T11:31:15;5.68;;;2.55;;
30874;SDS011;17581;43.222;27.924;2023-05-14T11:33:41;3.85;;;2.53;;
30874;SDS011;17581;43.222;27.924;2023-05-14T11:36:06;4.97;;;2.28;;
30874;SDS011;17581;43.222;27.924;2023-05-14T11:38:34;14.73;;;2.80;;
30874;SDS011;17581;43.222;27.924;2023-05-14T11:41:13;6.95;;;2.10;;
30874;SDS011;17581;43.222;27.924;2023-05-14T11:43:39;5.28;;;2.10;;
30874;SDS011;17581;43.222;27.924;2023-05-14T11:46:05;5.25;;;2.85;;
30874;SDS011;17581;43.222;27.924;2023-05-14T11:48:32;14.35;;;3.72;;
30874;SDS011;17581;43.222;27.924;2023-05-14T11:50:58;10.07;;;2.65;;
30874;SDS011;17581;43.222;27.924;2023-05-14T11:53:24;7.95;;;2.28;;
30874;SDS011;17581;43.222;27.924;2023-05-14T11:55:51;6.70;;;2.78;;
30874;SDS011;17581;43.222;27.924;2023-05-14T11:58:24;16.83;;;4.18;;
30874;SDS011;17581;43.222;27.924;2023-05-14T12:00:50;18.27;;;4.22;;
30874;SDS011;17581;43.222;27.924;2023-05-14T12:03:19;9.88;;;3.33;;
30874;SDS011;17581;43.222;27.924;2023-05-14T12:05:55;12.75;;;3.90;;
30874;SDS011;17581;43.222;27.924;2023-05-14T12:08:25;11.13;;;5.20;;
30874;SDS011;17581;43.222;27.924;2023-05-14T12:10:53;8.65;;;3.35;;
30874;SDS011;17581;43.222;27.924;2023-05-14T12:13:18;13.15;;;3.45;;
30874;SDS011;17581;43.222;27.924;2023-05-14T12:15:47;12.88;;;3.65;;
30874;SDS011;17581;43.222;27.924;2023-05-14T12:18:19;15.23;;;3.72;;
30874;SDS011;17581;43.222;27.924;2023-05-14T12:20:45;23.13;;;4.00;;
30874;SDS011;17581;43.222;27.924;2023-05-14T12:23:15;11.77;;;3.80;;
30874;SDS011;17581;43.222;27.924;2023-05-14T12:25:48;15.93;;;3.40;;
30874;SDS011;17581;43.222;27.924;2023-05-14T12:28:15;31.13;;;5.72;;
30874;SDS011;17581;43.222;27.924;2023-05-14T12:30:41;7.75;;;3.63;;
30874;SDS011;17581;43.222;27.924;2023-05-14T12:33:07;11.82;;;3.67;;
30874;SDS011;17581;43.222;27.924;2023-05-14T12:35:32;11.20;;;3.40;;
30874;SDS011;17581;43.222;27.924;2023-05-14T12:37:58;5.75;;;3.38;;
30874;SDS011;17581;43.222;27.924;2023-05-14T12:40:23;10.13;;;4.05;;
30874;SDS011;17581;43.222;27.924;2023-05-14T12:42:49;14.95;;;3.30;;
30874;SDS011;17581;43.222;27.924;2023-05-14T12:45:14;9.82;;;3.25;;
30874;SDS011;17581;43.222;27.924;2023-05-14T12:47:40;13.82;;;6.45;;
30874;SDS011;17581;43.222;27.924;2023-05-14T12:50:05;29.52;;;5.35;;
30874;SDS011;17581;43.222;27.924;2023-05-14T12:52:31;15.05;;;3.88;;
30874;SDS011;17581;43.222;27.924;2023-05-14T12:54:57;18.50;;;3.53;;
30874;SDS011;17581;43.222;27.924;2023-05-14T12:57:22;22.30;;;5.25;;
30874;SDS011;17581;43.222;27.924;2023-05-14T12:59:48;10.02;;;4.13;;
30874;SDS011;17581;43.222;27.924;2023-05-14T13:02:13;13.52;;;3.55;;
30874;SDS011;17581;43.222;27.924;2023-05-14T13:04:39;27.23;;;5.03;;
30874;SDS011;17581;43.222;27.924;2023-05-14T13:07:05;9.90;;;4.32;;
30874;SDS011;17581;43.222;27.924;2023-05-14T13:09:32;12.82;;;3.30;;
30874;SDS011;17581;43.222;27.924;2023-05-14T13:11:58;11.88;;;3.97;;
30874;SDS011;17581;43.222;27.924;2023-05-14T13:14:23;17.23;;;5.03;;
30874;SDS011;17581;43.222;27.924;2023-05-14T13:16:49;25.08;;;4.35;;
30874;SDS011;17581;43.222;27.924;2023-05-14T13:19:14;13.05;;;3.25;;
30874;SDS011;17581;43.222;27.924;2023-05-14T13:21:40;6.03;;;3.03;;
30874;SDS011;17581;43.222;27.924;2023-05-14T13:24:05;14.73;;;3.50;;
30874;SDS011;17581;43.222;27.924;2023-05-14T13:26:31;10.95;;;3.17;;
30874;SDS011;17581;43.222;27.924;2023-05-14T13:28:56;5.68;;;2.70;;
30874;SDS011;17581;43.222;27.924;2023-05-14T13:31:22;12.15;;;2.53;;
30874;SDS011;17581;43.222;27.924;2023-05-14T13:33:47;6.30;;;2.70;;
30874;SDS011;17581;43.222;27.924;2023-05-14T13:36:13;9.82;;;3.10;;
30874;SDS011;17581;43.222;27.924;2023-05-14T13:38:40;9.55;;;3.05;;
30874;SDS011;17581;43.222;27.924;2023-05-14T13:41:05;10.80;;;3.03;;
30874;SDS011;17581;43.222;27.924;2023-05-14T13:43:32;13.95;;;4.18;;
30874;SDS011;17581;43.222;27.924;2023-05-14T13:45:59;8.23;;;3.05;;
30874;SDS011;17581;43.222;27.924;2023-05-14T13:48:25;15.93;;;2.95;;
30874;SDS011;17581;43.222;27.924;2023-05-14T13:50:51;18.38;;;3.10;;
30874;SDS011;17581;43.222;27.924;2023-05-14T13:53:18;11.75;;;3.45;;
30874;SDS011;17581;43.222;27.924;2023-05-14T13:55:44;6.88;;;2.85;;
30874;SDS011;17581;43.222;27.924;2023-05-14T13:58:10;13.65;;;3.20;;
30874;SDS011;17581;43.222;27.924;2023-05-14T14:00:35;9.80;;;3.35;;
30874;SDS011;17581;43.222;27.924;2023-05-14T14:03:01;9.05;;;3.10;;
30874;SDS011;17581;43.222;27.924;2023-05-14T14:05:26;8.10;;;2.72;;
30874;SDS011;17581;43.222;27.924;2023-05-14T14:07:55;20.17;;;3.33;;
30874;SDS011;17581;43.222;27.924;2023-05-14T14:10:21;14.18;;;3.65;;
30874;SDS011;17581;43.222;27.924;2023-05-14T14:12:47;6.45;;;2.80;;
30874;SDS011;17581;43.222;27.924;2023-05-14T14:15:13;7.13;;;3.22;;
30874;SDS011;17581;43.222;27.924;2023-05-14T14:17:39;22.17;;;3.78;;
30874;SDS011;17581;43.222;27.924;2023-05-14T14:20:07;14.13;;;3.05;;
30874;SDS011;17581;43.222;27.924;2023-05-14T14:22:33;17.17;;;3.85;;
30874;SDS011;17581;43.222;27.924;2023-05-14T14:24:59;8.80;;;3.35;;
30874;SDS011;17581;43.222;27.924;2023-05-14T14:27:25;12.23;;;3.08;;
30874;SDS011;17581;43.222;27.924;2023-05-14T14:29:51;15.98;;;3.05;;
30874;SDS011;17581;43.222;27.924;2023-05-14T14:32:16;31.98;;;3.90;;